Terminal Aerodrome Forecast
Issued by NWS Corpus Christi, TX

Home | Current Version | Previous Version | Text Only | Print | Product List | Glossary On
Versions: 1 2 3 4 5 6 7 8 9 10 11 12 13 14 15 16
000
FTUS44 KCRP 291720
TAFVCT
TAF
KVCT 291720Z 2918/3018 15010KT P6SM VCSH SCT050 SCT250
     FM292300 16005KT P6SM FEW020 SCT200
     FM301300 14003KT P6SM SCT022 SCT030=

USA.gov is the U.S. government's official web portal to all federal, state and local government web resources and services.